Time;durP1;ratioP1;P1;durP2;ratioP2;P2;SDS_P1;SDS_P2;PMS_P1;PMS_P2;Temp;Humidity;BMP_temperature;BMP_pressure;BME280_temperature;BME280_humidity;BME280_pressure;Samples;Min_cycle;Max_cycle;Signal;HPM_P1;HPM_P2
2023/04/26 00:01:13;;;;;;;7.88;2.55;;;4.70;99.90;;;;;;5055564;28;20508;-69
2023/04/26 00:03:39;;;;;;;6.10;2.30;;;4.70;99.90;;;;;;5054409;28;20103;-69
2023/04/26 00:06:08;;;;;;;5.97;3.15;;;4.70;99.90;;;;;;5054254;28;20080;-69
2023/04/26 00:08:34;;;;;;;7.65;3.47;;;4.70;99.90;;;;;;5054262;28;20079;-69
2023/04/26 00:11:00;;;;;;;10.05;2.95;;;4.60;99.90;;;;;;5054150;28;20048;-69
2023/04/26 00:13:26;;;;;;;5.25;2.92;;;4.60;99.90;;;;;;5054101;28;20059;-69
2023/04/26 00:15:51;;;;;;;8.07;2.88;;;4.60;99.90;;;;;;5054064;28;20045;-69
2023/04/26 00:18:17;;;;;;;5.63;3.60;;;4.60;99.90;;;;;;5054239;28;20144;-69
2023/04/26 00:20:42;;;;;;;9.25;3.30;;;4.50;99.90;;;;;;5055480;28;20064;-69
2023/04/26 00:23:09;;;;;;;8.57;3.60;;;4.50;99.90;;;;;;5054090;28;20041;-69
2023/04/26 00:25:35;;;;;;;10.73;3.60;;;4.50;99.90;;;;;;5054989;28;20045;-69
2023/04/26 00:28:01;;;;;;;9.90;2.53;;;4.50;99.90;;;;;;5055367;28;20118;-69
2023/04/26 00:30:26;;;;;;;10.68;2.92;;;4.50;99.90;;;;;;5055421;28;20045;-69
2023/04/26 00:32:52;;;;;;;9.90;3.00;;;4.50;99.90;;;;;;5055273;28;20037;-69
2023/04/26 00:35:18;;;;;;;8.80;3.45;;;4.50;99.90;;;;;;5053716;28;20077;-69
2023/04/26 00:37:43;;;;;;;7.43;2.72;;;4.40;99.90;;;;;;5055074;28;20040;-69
2023/04/26 00:40:10;;;;;;;8.18;2.72;;;4.40;99.90;;;;;;5054926;28;20045;-69
2023/04/26 00:42:37;;;;;;;9.55;3.10;;;4.40;99.90;;;;;;5055075;28;20041;-69
2023/04/26 00:45:03;;;;;;;9.90;2.92;;;4.40;99.90;;;;;;5054580;28;20500;-69
2023/04/26 00:47:29;;;;;;;8.70;2.80;;;4.50;99.90;;;;;;5054437;28;20037;-69
2023/04/26 00:49:55;;;;;;;9.10;3.35;;;4.50;99.90;;;;;;5054763;28;20041;-69
2023/04/26 00:52:21;;;;;;;10.52;3.40;;;4.50;99.90;;;;;;5054875;28;20496;-69
2023/04/26 00:54:48;;;;;;;9.15;2.80;;;4.60;99.90;;;;;;5054580;28;20037;-69
2023/04/26 00:57:14;;;;;;;12.55;3.42;;;4.50;99.90;;;;;;5055048;28;20485;-69
2023/04/26 00:59:40;;;;;;;9.70;2.92;;;4.50;99.90;;;;;;5054863;28;20080;-69
2023/04/26 01:02:07;;;;;;;6.55;2.40;;;4.40;99.90;;;;;;5053469;28;20051;-69
2023/04/26 01:04:33;;;;;;;11.15;2.90;;;4.50;99.90;;;;;;5054190;28;20423;-69
2023/04/26 01:07:00;;;;;;;12.02;3.05;;;4.50;99.90;;;;;;5052808;28;20029;-69
2023/04/26 01:09:27;;;;;;;7.57;2.78;;;4.50;99.90;;;;;;5053334;28;20049;-69
2023/04/26 01:11:55;;;;;;;11.15;3.35;;;4.40;99.90;;;;;;5054462;28;20033;-69
2023/04/26 01:14:21;;;;;;;12.48;3.00;;;4.50;99.90;;;;;;5036596;28;20488;-69
2023/04/26 01:16:48;;;;;;;5.90;2.58;;;4.50;99.90;;;;;;5052704;28;20124;-69
2023/04/26 01:19:15;;;;;;;8.48;2.80;;;4.50;99.90;;;;;;5052949;28;20102;-69
2023/04/26 01:21:41;;;;;;;5.32;3.05;;;4.50;99.90;;;;;;5054073;28;20393;-69
2023/04/26 01:24:12;;;;;;;7.75;3.28;;;4.50;99.90;;;;;;5052591;28;20124;-69
2023/04/26 01:26:47;;;;;;;7.18;2.55;;;4.40;99.90;;;;;;5053593;28;20033;-69
2023/04/26 01:29:17;;;;;;;9.02;2.97;;;4.40;99.90;;;;;;5052676;28;20041;-69
2023/04/26 01:31:43;;;;;;;8.70;3.00;;;4.40;99.90;;;;;;5054037;28;20037;-69
2023/04/26 01:34:09;;;;;;;7.15;3.05;;;4.40;99.90;;;;;;5052829;28;20404;-69
2023/04/26 01:36:34;;;;;;;13.45;3.53;;;4.40;99.90;;;;;;5053629;28;20594;-69
2023/04/26 01:39:00;;;;;;;6.03;3.20;;;4.40;99.90;;;;;;5052744;28;20049;-69
2023/04/26 01:41:25;;;;;;;10.18;3.50;;;4.30;99.90;;;;;;5053630;28;20080;-69
2023/04/26 01:43:51;;;;;;;6.70;3.25;;;4.30;99.90;;;;;;5052190;28;20041;-69
2023/04/26 01:46:16;;;;;;;6.15;2.42;;;4.30;99.90;;;;;;5052674;28;20412;-68
2023/04/26 01:48:42;;;;;;;10.70;2.90;;;4.30;99.90;;;;;;5053927;28;20087;-69
2023/04/26 01:51:07;;;;;;;9.70;3.28;;;4.30;99.90;;;;;;5052124;28;20036;-69
2023/04/26 01:53:33;;;;;;;12.98;3.20;;;4.40;99.90;;;;;;5053496;28;20106;-69
2023/04/26 01:56:04;;;;;;;9.02;2.67;;;4.40;99.90;;;;;;5052082;28;20128;-69
2023/04/26 01:58:30;;;;;;;12.40;3.17;;;4.40;99.90;;;;;;5053246;28;20044;-69
2023/04/26 02:00:56;;;;;;;5.70;2.75;;;4.40;99.90;;;;;;5053142;28;20060;-69
2023/04/26 02:03:22;;;;;;;8.95;3.50;;;4.40;99.90;;;;;;5051844;28;20044;-69
2023/04/26 02:05:47;;;;;;;10.82;3.17;;;4.50;99.90;;;;;;5052733;28;20646;-69
2023/04/26 02:08:13;;;;;;;9.05;3.50;;;4.40;99.90;;;;;;5053102;28;20044;-69
2023/04/26 02:10:39;;;;;;;10.07;3.17;;;4.40;99.90;;;;;;5051770;28;20090;-68
2023/04/26 02:13:07;;;;;;;12.93;3.10;;;4.40;99.90;;;;;;5052863;28;20040;-69
2023/04/26 02:15:33;;;;;;;8.05;3.00;;;4.40;99.90;;;;;;5052719;28;20049;-69
2023/04/26 02:17:58;;;;;;;13.82;4.00;;;4.40;99.90;;;;;;5052482;28;20280;-69
2023/04/26 02:20:24;;;;;;;8.73;2.90;;;4.40;99.90;;;;;;5052980;28;20497;-69
2023/04/26 02:22:50;;;;;;;8.85;4.28;;;4.40;99.90;;;;;;5051579;28;20051;-69
2023/04/26 02:25:16;;;;;;;8.25;3.05;;;4.40;99.90;;;;;;5052710;28;20033;-69
2023/04/26 02:27:41;;;;;;;9.32;3.17;;;4.30;99.90;;;;;;5051377;28;20488;-69
2023/04/26 02:30:08;;;;;;;8.52;3.10;;;4.40;99.90;;;;;;5052880;28;20040;-69
2023/04/26 02:32:33;;;;;;;13.68;2.97;;;4.30;99.90;;;;;;5052557;28;20556;-68
2023/04/26 02:34:59;;;;;;;6.82;2.78;;;4.30;99.90;;;;;;5051778;28;20080;-69
2023/04/26 02:37:25;;;;;;;7.60;4.20;;;4.30;99.90;;;;;;5051399;28;20041;-69
2023/04/26 02:39:51;;;;;;;13.00;2.78;;;4.30;99.90;;;;;;5052313;28;20489;-69
2023/04/26 02:42:17;;;;;;;8.35;3.97;;;4.30;99.90;;;;;;5052352;28;20051;-69
2023/04/26 02:44:42;;;;;;;7.00;2.83;;;4.30;99.90;;;;;;5050793;28;20131;-68
2023/04/26 02:47:08;;;;;;;7.70;2.45;;;4.20;99.90;;;;;;5052176;28;20033;-69
2023/04/26 02:49:34;;;;;;;12.88;3.88;;;4.20;99.90;;;;;;5052513;28;20064;-69
2023/04/26 02:51:59;;;;;;;11.57;3.05;;;4.20;99.90;;;;;;5052419;28;20183;-69
2023/04/26 02:54:25;;;;;;;6.95;2.53;;;4.20;99.90;;;;;;5052161;28;20525;-68
2023/04/26 02:56:50;;;;;;;7.05;3.40;;;4.20;99.90;;;;;;5050835;28;20412;-69
2023/04/26 02:59:16;;;;;;;4.97;2.45;;;4.20;99.90;;;;;;5052585;28;20037;-69
2023/04/26 03:01:42;;;;;;;9.88;3.15;;;4.20;99.90;;;;;;5051591;28;20045;-69
2023/04/26 03:04:07;;;;;;;7.97;2.55;;;4.10;99.90;;;;;;5052748;28;20041;-69
2023/04/26 03:06:33;;;;;;;7.55;2.70;;;4.10;99.90;;;;;;5052624;28;20307;-69
2023/04/26 03:08:59;;;;;;;7.78;3.38;;;4.20;99.90;;;;;;5051591;28;20051;-69
2023/04/26 03:11:25;;;;;;;7.70;2.72;;;4.10;99.90;;;;;;5051519;28;20055;-69
2023/04/26 03:13:50;;;;;;;6.95;2.92;;;4.10;99.90;;;;;;5052394;28;20113;-69
2023/04/26 03:16:20;;;;;;;8.73;2.60;;;4.10;99.90;;;;;;5051461;28;20400;-68
2023/04/26 03:18:45;;;;;;;7.30;2.72;;;4.10;99.90;;;;;;5052589;28;20033;-69
2023/04/26 03:21:11;;;;;;;8.98;3.67;;;4.10;99.90;;;;;;5052476;28;20081;-69
2023/04/26 03:23:37;;;;;;;6.07;2.78;;;4.00;99.90;;;;;;5050909;28;20037;-69
2023/04/26 03:26:03;;;;;;;8.05;2.67;;;4.10;99.90;;;;;;5052184;28;20531;-68
2023/04/26 03:28:28;;;;;;;9.02;2.72;;;4.00;99.90;;;;;;5052319;28;20112;-68
2023/04/26 03:30:54;;;;;;;7.10;2.45;;;4.10;99.90;;;;;;5051174;28;20037;-68
2023/04/26 03:33:19;;;;;;;6.00;2.08;;;4.10;99.90;;;;;;5052379;28;20635;-68
2023/04/26 03:35:45;;;;;;;9.30;2.63;;;4.10;99.90;;;;;;5052238;28;20479;-68
2023/04/26 03:38:11;;;;;;;5.47;2.83;;;4.10;99.90;;;;;;5052164;28;20041;-68
2023/04/26 03:40:36;;;;;;;7.90;2.10;;;4.20;99.90;;;;;;5052068;28;20455;-68
2023/04/26 03:43:02;;;;;;;5.70;3.15;;;4.20;99.90;;;;;;5052264;28;20060;-68
2023/04/26 03:45:28;;;;;;;5.75;2.55;;;4.20;99.90;;;;;;5052016;28;20094;-68
2023/04/26 03:47:53;;;;;;;11.13;2.75;;;4.20;99.90;;;;;;5051090;28;20064;-68
2023/04/26 03:50:19;;;;;;;5.07;2.63;;;4.20;99.90;;;;;;5052088;28;20068;-68
2023/04/26 03:52:45;;;;;;;7.55;2.15;;;4.20;99.90;;;;;;5051128;28;20041;-68
2023/04/26 03:55:10;;;;;;;8.27;2.20;;;4.20;99.90;;;;;;5051899;28;20041;-68
2023/04/26 03:57:36;;;;;;;6.93;2.35;;;4.20;99.90;;;;;;5050929;28;20076;-68
2023/04/26 04:00:09;;;;;;;8.40;2.67;;;4.20;99.90;;;;;;5051986;28;20456;-68
2023/04/26 04:02:34;;;;;;;8.07;2.97;;;4.20;99.90;;;;;;5052292;28;20048;-68
2023/04/26 04:05:00;;;;;;;5.30;2.45;;;4.20;99.90;;;;;;5052027;28;20033;-68
2023/04/26 04:07:25;;;;;;;4.45;2.33;;;4.30;99.90;;;;;;5052091;28;20044;-68
2023/04/26 04:09:51;;;;;;;6.60;2.20;;;4.20;99.90;;;;;;5053472;28;20037;-69
2023/04/26 04:12:16;;;;;;;8.98;3.03;;;4.20;99.90;;;;;;5055867;28;20404;-68
2023/04/26 04:14:42;;;;;;;5.82;1.88;;;4.20;99.90;;;;;;5054201;28;20108;-68
2023/04/26 04:17:07;;;;;;;8.38;2.08;;;4.20;99.90;;;;;;5037617;28;20047;-68
2023/04/26 04:19:33;;;;;;;7.10;2.47;;;4.20;99.90;;;;;;5055486;28;20036;-68
2023/04/26 04:21:58;;;;;;;4.15;1.90;;;4.20;99.90;;;;;;5055559;28;20098;-68
2023/04/26 04:24:24;;;;;;;8.88;2.20;;;4.20;99.90;;;;;;5053529;28;20045;-68
2023/04/26 04:26:50;;;;;;;5.53;1.77;;;4.20;99.90;;;;;;5054613;28;20037;-68
2023/04/26 04:29:15;;;;;;;4.97;1.90;;;4.20;99.90;;;;;;5054629;28;20037;-68
2023/04/26 04:31:41;;;;;;;5.70;2.95;;;4.40;99.90;;;;;;5055390;28;20098;-68
2023/04/26 04:34:07;;;;;;;6.95;2.95;;;4.30;99.90;;;;;;5055006;28;20045;-68
2023/04/26 04:36:33;;;;;;;6.03;2.63;;;4.40;99.90;;;;;;5054966;28;20600;-68
2023/04/26 04:38:58;;;;;;;9.30;2.10;;;4.40;99.90;;;;;;5054224;28;20102;-68
2023/04/26 04:41:24;;;;;;;4.28;1.90;;;4.40;99.90;;;;;;5053828;28;20056;-68
2023/04/26 04:43:50;;;;;;;5.53;2.35;;;4.40;99.90;;;;;;5054098;28;20049;-68
2023/04/26 04:46:15;;;;;;;4.30;1.80;;;4.50;99.90;;;;;;5054389;28;20127;-68
2023/04/26 04:48:42;;;;;;;3.65;1.60;;;4.50;99.90;;;;;;5055028;28;20377;-68
2023/04/26 04:51:07;;;;;;;5.32;2.20;;;4.40;99.90;;;;;;5054627;28;20048;-68
2023/04/26 04:53:33;;;;;;;5.32;1.88;;;4.50;99.90;;;;;;5054510;28;20056;-68
2023/04/26 04:55:59;;;;;;;3.90;2.05;;;4.50;99.90;;;;;;5052939;28;20517;-68
2023/04/26 04:58:25;;;;;;;3.28;1.67;;;4.60;99.90;;;;;;5054077;28;20047;-68
2023/04/26 05:00:52;;;;;;;3.03;1.92;;;4.60;99.90;;;;;;5054073;28;20560;-68
2023/04/26 05:03:18;;;;;;;8.32;2.40;;;4.60;99.90;;;;;;5052725;28;20041;-68
2023/04/26 05:05:44;;;;;;;5.25;1.90;;;4.70;99.90;;;;;;5052688;28;20089;-68
2023/04/26 05:08:09;;;;;;;7.35;1.90;;;4.70;99.90;;;;;;5054054;28;20048;-71
2023/04/26 05:10:35;;;;;;;3.50;2.00;;;4.70;99.90;;;;;;5052961;28;20033;-70
2023/04/26 05:13:01;;;;;;;7.10;2.70;;;4.80;99.90;;;;;;5052550;28;20504;-69
2023/04/26 05:15:26;;;;;;;6.88;2.63;;;4.90;99.90;;;;;;5053816;28;20040;-69
2023/04/26 05:17:54;;;;;;;2.53;1.50;;;4.90;99.90;;;;;;5053916;28;20029;-69
2023/04/26 05:20:20;;;;;;;4.18;2.42;;;5.00;99.90;;;;;;5054015;28;20037;-69
2023/04/26 05:22:46;;;;;;;5.90;2.28;;;4.90;99.90;;;;;;5053168;28;20113;-69
2023/04/26 05:25:12;;;;;;;4.43;2.20;;;4.90;99.90;;;;;;5053609;28;20534;-69
2023/04/26 05:27:38;;;;;;;3.33;2.08;;;4.90;99.90;;;;;;5052232;28;20037;-69
2023/04/26 05:30:05;;;;;;;3.53;2.38;;;4.90;99.90;;;;;;5053807;28;20512;-69
2023/04/26 05:32:31;;;;;;;3.75;1.83;;;5.00;99.90;;;;;;5053605;28;20029;-69
2023/04/26 05:34:57;;;;;;;5.35;2.40;;;5.10;99.90;;;;;;5052155;28;20037;-69
2023/04/26 05:37:22;;;;;;;7.60;2.92;;;5.10;99.90;;;;;;5052295;28;20039;-69
2023/04/26 05:39:48;;;;;;;5.50;2.25;;;5.20;99.90;;;;;;5052339;28;20037;-69
2023/04/26 05:42:14;;;;;;;7.20;2.63;;;5.20;99.90;;;;;;5053196;28;20032;-69
2023/04/26 05:44:39;;;;;;;3.63;2.33;;;5.20;99.90;;;;;;5053203;28;20131;-70
2023/04/26 05:47:05;;;;;;;3.65;2.10;;;5.20;99.90;;;;;;5051359;28;20496;-70
2023/04/26 05:49:31;;;;;;;6.10;2.70;;;5.20;99.90;;;;;;5051717;28;20099;-70
2023/04/26 05:51:59;;;;;;;6.70;3.35;;;5.20;99.90;;;;;;5052848;28;20044;-70
2023/04/26 05:54:24;;;;;;;6.53;2.67;;;5.10;99.90;;;;;;5052603;28;20068;-70
2023/04/26 05:56:50;;;;;;;8.18;2.20;;;5.10;99.90;;;;;;5052328;28;20083;-70
2023/04/26 05:59:15;;;;;;;5.80;2.33;;;5.30;99.90;;;;;;5052451;28;20043;-70
2023/04/26 06:01:41;;;;;;;6.68;2.70;;;5.70;99.90;;;;;;5051908;28;20064;-70
2023/04/26 06:04:06;;;;;;;7.40;2.53;;;6.00;99.90;;;;;;5052368;28;20053;-70
2023/04/26 06:06:32;;;;;;;7.38;2.30;;;6.40;99.90;;;;;;5052135;28;20512;-70
2023/04/26 06:08:58;;;;;;;5.88;2.53;;;6.70;99.90;;;;;;5052467;28;20033;-70
2023/04/26 06:11:23;;;;;;;6.25;2.45;;;7.20;99.90;;;;;;5052305;28;20044;-70
2023/04/26 06:13:49;;;;;;;10.23;2.50;;;7.50;99.90;;;;;;5050965;28;20105;-70
2023/04/26 06:16:14;;;;;;;9.18;2.85;;;7.80;99.90;;;;;;5051863;28;20128;-70
2023/04/26 06:18:40;;;;;;;5.32;3.00;;;7.90;99.90;;;;;;5050928;28;20045;-70
2023/04/26 06:21:05;;;;;;;7.25;2.28;;;7.60;99.90;;;;;;5052207;28;20032;-69
2023/04/26 06:23:31;;;;;;;4.18;1.98;;;7.40;99.90;;;;;;5051990;28;20132;-68
2023/04/26 06:25:57;;;;;;;6.78;2.63;;;7.20;99.90;;;;;;5051722;28;20033;-69
2023/04/26 06:28:22;;;;;;;9.35;2.38;;;7.20;99.90;;;;;;5052189;28;20033;-69
2023/04/26 06:30:48;;;;;;;5.32;1.85;;;7.10;99.90;;;;;;5052210;28;20029;-68
2023/04/26 06:33:13;;;;;;;3.70;2.35;;;6.90;99.90;;;;;;5050586;28;20516;-68
2023/04/26 06:35:42;;;;;;;7.68;2.50;;;6.90;99.90;;;;;;5051871;28;20045;-68
2023/04/26 06:38:08;;;;;;;9.45;2.42;;;6.90;99.90;;;;;;5050927;28;20043;-68
2023/04/26 06:40:35;;;;;;;5.68;2.40;;;6.90;99.90;;;;;;5051810;28;20037;-69
2023/04/26 06:43:01;;;;;;;7.05;3.38;;;7.00;99.90;;;;;;5051935;28;20393;-69
2023/04/26 06:45:27;;;;;;;4.15;2.55;;;7.30;99.90;;;;;;5051632;28;20091;-69
2023/04/26 06:47:52;;;;;;;5.45;2.42;;;7.50;99.90;;;;;;5051812;28;20627;-69
2023/04/26 06:50:19;;;;;;;6.18;2.42;;;7.60;99.90;;;;;;5052270;28;20432;-69
2023/04/26 06:52:44;;;;;;;5.35;2.00;;;7.70;99.90;;;;;;5051761;28;20043;-69
2023/04/26 06:55:10;;;;;;;5.47;2.53;;;7.90;99.90;;;;;;5051370;28;20041;-69
2023/04/26 06:57:36;;;;;;;3.03;2.00;;;8.30;99.90;;;;;;5051729;28;20044;-68
2023/04/26 07:00:03;;;;;;;6.65;2.25;;;8.70;99.90;;;;;;5067137;28;20060;-69
2023/04/26 07:02:29;;;;;;;4.82;1.95;;;9.20;99.90;;;;;;5051655;28;20033;-69
2023/04/26 07:04:54;;;;;;;4.90;2.10;;;9.50;99.90;;;;;;5050064;28;20052;-69
2023/04/26 07:07:20;;;;;;;7.05;2.58;;;9.80;99.90;;;;;;5051424;28;20408;-69
2023/04/26 07:09:46;;;;;;;3.92;2.00;;;9.90;99.90;;;;;;5051392;28;20040;-69
2023/04/26 07:12:12;;;;;;;2.75;1.50;;;10.20;99.90;;;;;;5050229;28;20114;-69
2023/04/26 07:14:42;;;;;;;5.10;1.80;;;10.30;99.90;;;;;;5051473;28;20033;-69
2023/04/26 07:17:08;;;;;;;6.28;2.17;;;10.30;99.90;;;;;;5050044;28;20041;-69
2023/04/26 07:19:34;;;;;;;6.25;2.42;;;10.30;99.90;;;;;;5050203;28;20040;-69
2023/04/26 07:22:00;;;;;;;3.17;1.85;;;10.30;99.90;;;;;;5051051;28;20417;-69
2023/04/26 07:24:25;;;;;;;7.20;1.77;;;10.20;99.90;;;;;;5050525;28;20090;-69
2023/04/26 07:26:51;;;;;;;6.60;2.05;;;9.80;99.90;;;;;;5050802;28;20389;-69
2023/04/26 07:29:17;;;;;;;6.50;2.00;;;9.80;99.90;;;;;;5051362;28;20033;-69
2023/04/26 07:31:43;;;;;;;7.10;1.98;;;9.90;99.90;;;;;;5051223;28;20044;-69
2023/04/26 07:34:09;;;;;;;6.18;2.13;;;9.60;99.90;;;;;;5049875;28;20040;-70
2023/04/26 07:36:34;;;;;;;4.55;1.90;;;9.50;99.90;;;;;;5051409;28;20384;-70
2023/04/26 07:39:00;;;;;;;4.07;1.90;;;9.40;99.90;;;;;;5050742;28;20048;-70
2023/04/26 07:41:26;;;;;;;10.30;1.88;;;9.10;99.90;;;;;;5051303;28;20077;-70
2023/04/26 07:43:51;;;;;;;6.32;3.67;;;9.00;99.90;;;;;;5049693;28;20041;-70
2023/04/26 07:46:17;;;;;;;5.47;1.80;;;8.90;99.90;;;;;;5053087;28;20037;-70
2023/04/26 07:48:43;;;;;;;5.30;2.28;;;9.40;99.90;;;;;;5053793;28;20033;-70
2023/04/26 07:51:12;;;;;;;4.32;1.95;;;9.60;99.90;;;;;;5053719;28;20123;-70
2023/04/26 07:53:38;;;;;;;5.95;2.30;;;9.90;99.90;;;;;;5054823;28;20163;-70
2023/04/26 07:56:06;;;;;;;4.40;1.95;;;10.20;99.90;;;;;;5054905;28;20090;-70
2023/04/26 07:58:32;;;;;;;3.90;2.15;;;10.30;99.90;;;;;;5053635;28;20130;-70
2023/04/26 08:00:58;;;;;;;4.95;1.88;;;10.70;99.90;;;;;;5053852;28;20053;-70
2023/04/26 08:03:26;;;;;;;11.35;2.50;;;10.80;99.90;;;;;;5054670;28;20542;-70
2023/04/26 08:05:52;;;;;;;5.00;1.80;;;10.70;99.90;;;;;;5053192;28;20041;-70
2023/04/26 08:08:18;;;;;;;9.18;2.13;;;10.60;99.90;;;;;;5054810;28;20037;-70
2023/04/26 08:10:44;;;;;;;7.15;1.80;;;10.60;99.90;;;;;;5054683;28;20043;-70
2023/04/26 08:13:10;;;;;;;8.90;2.00;;;10.80;99.90;;;;;;5054765;28;20047;-70
2023/04/26 08:15:36;;;;;;;4.70;1.83;;;11.20;99.90;;;;;;5070034;28;20401;-70
2023/04/26 08:18:01;;;;;;;9.35;2.22;;;11.30;99.90;;;;;;5053399;28;20037;-70
2023/04/26 08:20:27;;;;;;;5.57;2.65;;;11.10;99.90;;;;;;5053351;28;20052;-70
2023/04/26 08:22:56;;;;;;;8.80;2.38;;;10.80;99.90;;;;;;5054676;28;20036;-70
2023/04/26 08:25:23;;;;;;;6.32;1.85;;;10.50;99.90;;;;;;5052958;28;20090;-70
2023/04/26 08:27:48;;;;;;;4.47;2.15;;;10.40;99.90;;;;;;5054355;28;20037;-70
2023/04/26 08:30:14;;;;;;;7.40;2.35;;;10.40;99.90;;;;;;5069601;28;20095;-70
2023/04/26 08:32:40;;;;;;;8.52;2.25;;;10.50;99.90;;;;;;5054186;28;20073;-70
2023/04/26 08:35:06;;;;;;;9.85;2.35;;;10.90;99.90;;;;;;5052644;28;20051;-70
2023/04/26 08:37:31;;;;;;;4.70;2.15;;;11.00;99.60;;;;;;5054212;28;20037;-70
2023/04/26 08:39:57;;;;;;;3.92;2.05;;;11.10;99.10;;;;;;5054142;28;20040;-70
2023/04/26 08:42:27;;;;;;;8.02;2.22;;;10.80;99.10;;;;;;5054070;28;20423;-70
2023/04/26 08:44:53;;;;;;;6.28;2.10;;;10.30;98.30;;;;;;5053609;28;20116;-70
2023/04/26 08:47:37;;;;;;;8.77;2.85;;;9.90;99.10;;;;;;5052403;28;20033;-71
2023/04/26 08:50:03;;;;;;;9.68;2.38;;;9.50;99.90;;;;;;5052721;28;20044;-70
2023/04/26 08:52:30;;;;;;;6.57;2.35;;;8.90;99.90;;;;;;5052731;28;20066;-70
2023/04/26 08:54:57;;;;;;;6.57;3.08;;;8.70;99.90;;;;;;5052508;28;20107;-70
2023/04/26 08:57:26;;;;;;;7.38;2.30;;;8.60;99.90;;;;;;5053487;28;20040;-70
2023/04/26 08:59:52;;;;;;;6.28;2.30;;;8.30;99.90;;;;;;5052292;28;20044;-70
2023/04/26 09:02:20;;;;;;;6.82;3.05;;;8.30;99.90;;;;;;5053974;28;20392;-70
2023/04/26 09:04:46;;;;;;;8.93;2.35;;;8.30;99.90;;;;;;5052109;28;20098;-70
2023/04/26 09:07:20;;;;;;;8.40;2.17;;;8.30;99.90;;;;;;5053668;28;20099;-70
2023/04/26 09:09:51;;;;;;;6.68;2.10;;;8.30;99.90;;;;;;5053736;28;20037;-70
2023/04/26 09:12:19;;;;;;;6.63;2.33;;;8.30;99.90;;;;;;5052547;28;20056;-70
2023/04/26 09:14:46;;;;;;;5.22;2.35;;;8.30;99.90;;;;;;5051982;28;20142;-70
2023/04/26 09:17:44;;;;;;;7.55;2.50;;;8.40;99.90;;;;;;5052279;28;20045;-70
2023/04/26 09:20:24;;;;;;;5.80;2.65;;;8.60;99.90;;;;;;5009547;28;20099;-70
2023/04/26 09:22:52;;;;;;;9.68;2.53;;;9.10;99.90;;;;;;5053245;28;20060;-70
2023/04/26 09:25:26;;;;;;;18.80;2.65;;;9.30;99.90;;;;;;5051753;28;20087;-70
2023/04/26 09:27:51;;;;;;;9.20;2.22;;;9.10;99.90;;;;;;5052027;28;20343;-70
2023/04/26 09:30:19;;;;;;;4.93;2.00;;;8.90;99.90;;;;;;5053240;28;20065;-70
2023/04/26 09:32:50;;;;;;;4.25;1.60;;;8.80;99.90;;;;;;5052033;28;20037;-70
2023/04/26 09:35:32;;;;;;;9.52;2.65;;;8.90;99.90;;;;;;5051663;28;20137;-70
2023/04/26 09:38:12;;;;;;;6.85;2.03;;;8.80;99.90;;;;;;5053157;28;20083;-70
2023/04/26 09:40:58;;;;;;;7.57;3.00;;;8.70;99.90;;;;;;5051861;28;20033;-70
2023/04/26 09:43:24;;;;;;;5.15;1.80;;;8.60;99.90;;;;;;5051566;28;20052;-70
2023/04/26 09:45:55;;;;;;;6.45;2.28;;;8.50;99.90;;;;;;5052517;28;20036;-70
2023/04/26 09:48:29;;;;;;;7.05;2.75;;;8.30;99.90;;;;;;5051719;28;20041;-70
2023/04/26 09:50:56;;;;;;;7.97;2.58;;;8.10;99.90;;;;;;5051860;28;20385;-70
2023/04/26 09:53:30;;;;;;;5.82;2.95;;;7.80;99.90;;;;;;5051455;28;20119;-70
2023/04/26 09:55:57;;;;;;;8.27;2.60;;;7.60;99.90;;;;;;5051219;28;20052;-72
2023/04/26 09:58:22;;;;;;;6.72;3.63;;;7.50;99.90;;;;;;5051363;28;20037;-70
2023/04/26 10:00:51;;;;;;;11.57;3.08;;;7.50;99.90;;;;;;5052666;28;20086;-71
2023/04/26 10:03:22;;;;;;;8.13;2.47;;;7.50;99.90;;;;;;5051373;28;20091;-70
2023/04/26 10:05:48;;;;;;;4.93;2.28;;;7.50;99.90;;;;;;5052417;28;20040;-70
2023/04/26 10:08:14;;;;;;;7.30;2.38;;;7.60;99.90;;;;;;5050534;28;20129;-70
2023/04/26 10:10:40;;;;;;;6.13;2.65;;;7.70;99.90;;;;;;5052444;28;20520;-70
2023/04/26 10:13:06;;;;;;;6.20;2.53;;;7.70;99.90;;;;;;5051089;28;20595;-70
2023/04/26 10:15:33;;;;;;;5.30;2.47;;;7.80;99.90;;;;;;5067459;28;20052;-70
2023/04/26 10:17:59;;;;;;;9.32;3.40;;;7.80;99.90;;;;;;5050927;28;20041;-70
2023/04/26 10:20:27;;;;;;;10.65;2.80;;;8.00;99.90;;;;;;5052349;28;20043;-70
2023/04/26 10:23:00;;;;;;;5.80;2.25;;;8.00;99.90;;;;;;5067618;28;20041;-71
2023/04/26 10:25:40;;;;;;;5.13;2.65;;;8.10;99.90;;;;;;5050686;28;20090;-71
2023/04/26 10:28:07;;;;;;;7.15;3.33;;;8.30;99.90;;;;;;5051572;28;20112;-69
2023/04/26 10:30:52;;;;;;;8.05;2.00;;;8.70;99.90;;;;;;5051822;28;20083;-69
2023/04/26 10:33:18;;;;;;;9.15;3.25;;;9.00;99.90;;;;;;5050104;28;20040;-69
2023/04/26 10:36:06;;;;;;;5.50;2.47;;;9.30;99.90;;;;;;5050781;28;20108;-70
2023/04/26 10:38:34;;;;;;;9.18;2.35;;;9.40;99.90;;;;;;5042807;28;20072;-68
2023/04/26 10:41:32;;;;;;;6.03;2.78;;;9.30;99.90;;;;;;5052071;28;20091;-69
2023/04/26 10:44:22;;;;;;;10.05;2.95;;;9.30;99.90;;;;;;5051401;28;20055;-69
2023/04/26 10:46:51;;;;;;;5.90;2.70;;;9.30;99.90;;;;;;5049502;28;20055;-69
2023/04/26 10:49:18;;;;;;;6.07;3.33;;;9.40;99.90;;;;;;5051412;28;20037;-69
2023/04/26 10:52:10;;;;;;;9.73;3.40;;;9.40;99.90;;;;;;5051431;28;20079;-70
2023/04/26 10:54:48;;;;;;;11.32;3.00;;;9.40;99.90;;;;;;5051197;28;20048;-70
2023/04/26 10:57:14;;;;;;;6.47;2.20;;;9.50;99.90;;;;;;5045281;28;20544;-70
2023/04/26 11:00:11;;;;;;;8.35;2.70;;;9.50;99.90;;;;;;5051960;28;20130;-69
2023/04/26 11:03:05;;;;;;;7.43;2.33;;;9.60;99.90;;;;;;5050453;28;20083;-69
2023/04/26 11:05:50;;;;;;;8.43;1.60;;;9.60;99.90;;;;;;5048899;28;20044;-70
2023/04/26 11:08:18;;;;;;;5.75;2.28;;;9.40;99.90;;;;;;5051474;28;20082;-70
2023/04/26 11:10:50;;;;;;;6.20;2.15;;;9.30;99.90;;;;;;5051507;28;20037;-70
2023/04/26 11:13:16;;;;;;;4.03;1.90;;;9.20;99.90;;;;;;5049987;28;20090;-70
2023/04/26 11:15:42;;;;;;;5.75;1.20;;;9.00;99.90;;;;;;5051084;28;20231;-70
2023/04/26 11:18:08;;;;;;;3.30;1.48;;;8.70;99.90;;;;;;5050164;28;20052;-70
2023/04/26 11:20:33;;;;;;;6.45;1.92;;;8.50;99.90;;;;;;5053988;28;20082;-70
2023/04/26 11:22:59;;;;;;;5.50;1.52;;;8.40;99.90;;;;;;5055678;28;20055;-70
2023/04/26 11:25:29;;;;;;;4.78;1.40;;;8.40;99.90;;;;;;5055335;28;20037;-70
2023/04/26 11:28:01;;;;;;;5.90;1.77;;;8.20;99.90;;;;;;5055235;28;20037;-70
2023/04/26 11:30:31;;;;;;;4.25;1.40;;;8.30;99.90;;;;;;5054279;28;20095;-70
2023/04/26 11:32:58;;;;;;;6.97;1.98;;;8.20;99.90;;;;;;5051050;28;20492;-70
2023/04/26 11:35:24;;;;;;;6.22;1.85;;;8.40;99.90;;;;;;5053589;28;20048;-70
2023/04/26 11:37:51;;;;;;;6.38;1.52;;;8.40;99.90;;;;;;5054844;28;20049;-70
2023/04/26 11:40:17;;;;;;;7.22;2.13;;;8.50;99.90;;;;;;5053924;28;20025;-69
2023/04/26 11:42:46;;;;;;;3.88;1.42;;;8.50;99.90;;;;;;5054975;28;20155;-69
2023/04/26 11:45:14;;;;;;;10.27;2.08;;;8.60;99.90;;;;;;5053454;28;20128;-69
2023/04/26 11:47:39;;;;;;;7.22;1.70;;;8.60;99.90;;;;;;5054735;28;20083;-69
2023/04/26 11:50:07;;;;;;;8.43;1.67;;;8.70;99.90;;;;;;5054671;28;20068;-69
2023/04/26 11:52:33;;;;;;;5.45;1.90;;;8.80;99.90;;;;;;5052164;28;20040;-68
2023/04/26 11:55:06;;;;;;;5.68;2.10;;;8.90;99.90;;;;;;5036465;28;20052;-69
2023/04/26 11:57:32;;;;;;;3.65;1.52;;;9.00;99.90;;;;;;5054691;28;20048;-69
2023/04/26 12:00:13;;;;;;;6.13;2.10;;;9.20;99.90;;;;;;5036790;28;20523;-69
2023/04/26 12:02:43;;;;;;;3.90;1.77;;;9.20;99.90;;;;;;5053128;28;20155;-69
2023/04/26 12:05:09;;;;;;;10.25;4.13;;;9.30;99.90;;;;;;5054004;28;20415;-69
2023/04/26 12:07:36;;;;;;;4.60;2.22;;;9.30;99.90;;;;;;5053906;28;20037;-69
2023/04/26 12:10:19;;;;;;;7.80;2.35;;;9.20;99.90;;;;;;5054397;28;20037;-69
2023/04/26 12:12:51;;;;;;;4.03;1.77;;;9.30;99.90;;;;;;5054346;28;20043;-69
2023/04/26 12:15:18;;;;;;;4.22;1.70;;;9.30;99.90;;;;;;5048720;28;20037;-69
2023/04/26 12:17:54;;;;;;;3.70;1.60;;;9.50;99.90;;;;;;5053754;28;20527;-69
2023/04/26 12:20:30;;;;;;;5.43;2.13;;;9.50;99.90;;;;;;5053271;28;20043;-69
2023/04/26 12:23:15;;;;;;;6.30;1.90;;;9.60;99.90;;;;;;5053973;28;20081;-69
2023/04/26 12:25:51;;;;;;;6.25;1.67;;;9.60;99.90;;;;;;5053589;28;20051;-69
2023/04/26 12:28:17;;;;;;;4.85;1.70;;;9.80;99.90;;;;;;5052575;28;20036;-69
2023/04/26 12:30:42;;;;;;;7.10;2.30;;;9.70;99.90;;;;;;5068619;28;20451;-69
2023/04/26 12:33:08;;;;;;;6.22;1.70;;;9.70;99.90;;;;;;5047359;28;20045;-69
2023/04/26 12:35:34;;;;;;;4.05;1.60;;;9.70;99.90;;;;;;5052945;28;20063;-70
2023/04/26 12:38:00;;;;;;;3.55;1.85;;;9.80;99.90;;;;;;5030434;28;20068;-69
2023/04/26 12:40:27;;;;;;;6.93;2.25;;;9.80;99.90;;;;;;5052757;28;20037;-70
2023/04/26 12:42:54;;;;;;;2.95;1.70;;;9.60;99.90;;;;;;5053397;28;20041;-69
2023/04/26 12:45:22;;;;;;;6.22;2.55;;;9.70;99.90;;;;;;5052624;28;20037;-69
2023/04/26 12:47:48;;;;;;;3.30;1.42;;;9.40;99.90;;;;;;5052546;28;20041;-69
2023/04/26 12:50:14;;;;;;;6.25;1.90;;;9.40;99.90;;;;;;5045395;28;20052;-70
2023/04/26 12:52:42;;;;;;;4.68;1.88;;;9.40;99.90;;;;;;5052377;28;20056;-70
2023/04/26 12:55:09;;;;;;;5.88;2.35;;;9.40;99.90;;;;;;5053456;28;20547;-69
2023/04/26 12:57:36;;;;;;;4.35;1.70;;;9.30;99.90;;;;;;5051884;28;20045;-69